createdAt,value
2019-02-23T00:00:19.593Z,100.00
2019-02-23T00:02:48.371Z,100.00
2019-02-23T00:05:17.102Z,100.00
2019-02-23T00:07:45.826Z,100.00
2019-02-23T00:10:14.706Z,100.00
2019-02-23T00:12:43.428Z,100.00
2019-02-23T00:15:12.159Z,100.00
2019-02-23T00:17:41.179Z,100.00
2019-02-23T00:20:10.109Z,100.00
2019-02-23T00:22:40.120Z,100.00
2019-02-23T00:25:09.025Z,100.00
2019-02-23T00:27:37.763Z,100.00
2019-02-23T00:30:09.724Z,100.00
2019-02-23T00:32:38.625Z,100.00
2019-02-23T00:35:07.358Z,100.00
2019-02-23T00:37:36.079Z,100.00
2019-02-23T00:40:05.877Z,100.00
2019-02-23T00:42:34.622Z,100.00
2019-02-23T00:45:03.353Z,100.00
2019-02-23T00:47:33.298Z,100.00
2019-02-23T00:50:02.020Z,100.00
2019-02-23T00:52:30.748Z,100.00
2019-02-23T00:54:59.648Z,100.00
2019-02-23T00:57:28.380Z,100.00
2019-02-23T00:59:57.112Z,100.00
2019-02-23T01:02:25.888Z,100.00
2019-02-23T01:04:54.613Z,100.00
2019-02-23T01:07:23.433Z,99.01
2019-02-23T01:09:52.290Z,97.10
2019-02-23T01:12:21.030Z,95.25
2019-02-23T01:14:49.763Z,95.08
2019-02-23T01:17:18.534Z,94.27
2019-02-23T01:19:48.183Z,93.59
2019-02-23T01:22:17.081Z,92.30
2019-02-23T01:24:45.859Z,91.92
2019-02-23T01:27:14.598Z,92.55
2019-02-23T01:29:43.368Z,91.71
2019-02-23T01:32:12.169Z,91.54
2019-02-23T01:34:40.900Z,90.82
2019-02-23T01:37:09.632Z,90.87
2019-02-23T01:39:38.436Z,90.12
2019-02-23T01:42:07.370Z,89.83
2019-02-23T01:44:36.101Z,89.83
2019-02-23T01:47:05.202Z,89.35
2019-02-23T01:49:34.242Z,87.50
2019-02-23T01:52:02.980Z,87.52
2019-02-23T01:54:32.162Z,87.03
2019-02-23T01:57:00.902Z,87.21
2019-02-23T01:59:29.619Z,86.43
2019-02-23T02:01:59.019Z,86.85
2019-02-23T02:04:27.927Z,87.28
2019-02-23T02:06:56.658Z,87.68
2019-02-23T02:09:25.985Z,87.08
2019-02-23T02:11:54.907Z,86.93
2019-02-23T02:14:23.629Z,84.80
2019-02-23T02:16:52.421Z,82.73
2019-02-23T02:19:21.142Z,81.41
2019-02-23T02:21:50.071Z,80.53
2019-02-23T02:24:18.956Z,81.85
2019-02-23T02:26:47.683Z,85.10
2019-02-23T02:29:16.403Z,81.22
2019-02-23T02:31:45.168Z,80.79
2019-02-23T02:34:15.485Z,80.17
2019-02-23T02:36:44.210Z,81.31
2019-02-23T02:39:14.086Z,78.95
2019-02-23T02:41:42.814Z,79.24
2019-02-23T02:44:11.574Z,80.03
2019-02-23T02:46:40.319Z,78.23
2019-02-23T02:49:09.146Z,78.23
2019-02-23T02:51:37.874Z,80.48
2019-02-23T02:54:06.646Z,80.26
2019-02-23T02:56:35.377Z,80.42
2019-02-23T02:59:04.107Z,79.23
2019-02-23T03:01:32.906Z,77.39
2019-02-23T03:04:01.626Z,77.39
2019-02-23T03:06:30.361Z,77.33
2019-02-23T03:08:59.165Z,77.33
2019-02-23T03:11:27.905Z,78.44
2019-02-23T03:13:56.623Z,78.44
2019-02-23T03:16:25.510Z,78.65
2019-02-23T03:18:54.230Z,78.38
2019-02-23T03:21:22.960Z,78.38
2019-02-23T03:23:51.869Z,79.56
2019-02-23T03:26:20.591Z,79.90
2019-02-23T03:28:49.309Z,80.56
2019-02-23T03:31:18.266Z,80.56
2019-02-23T03:33:46.994Z,80.69
2019-02-23T03:36:15.711Z,80.50
2019-02-23T03:38:44.916Z,80.92
2019-02-23T03:41:13.647Z,80.92
2019-02-23T03:43:42.372Z,82.37
2019-02-23T03:46:11.161Z,80.42
2019-02-23T03:48:39.903Z,80.26
2019-02-23T03:51:08.646Z,80.26
2019-02-23T03:53:37.580Z,80.58
2019-02-23T03:56:06.410Z,79.62
2019-02-23T03:58:35.145Z,79.52
2019-02-23T04:01:03.923Z,76.77
2019-02-23T04:03:32.635Z,78.35
2019-02-23T04:06:01.373Z,78.74
2019-02-23T04:08:30.204Z,76.20
2019-02-23T04:10:58.929Z,77.90
2019-02-23T04:13:27.653Z,77.93
2019-02-23T04:15:56.937Z,79.54
2019-02-23T04:18:25.662Z,81.94
2019-02-23T04:21:01.791Z,82.66
2019-02-23T04:23:24.923Z,82.66
2019-02-23T04:25:53.646Z,86.10
2019-02-23T04:28:22.369Z,85.75
2019-02-23T04:30:51.417Z,85.75
2019-02-23T04:33:20.198Z,87.32
2019-02-23T04:35:48.912Z,87.68
2019-02-23T04:38:17.785Z,87.68
2019-02-23T04:40:46.518Z,87.90
2019-02-23T04:43:15.250Z,87.81
2019-02-23T04:45:44.022Z,88.75
2019-02-23T04:48:12.744Z,88.75
2019-02-23T04:50:41.478Z,89.33
2019-02-23T04:53:10.436Z,89.50
2019-02-23T04:55:39.181Z,90.25
2019-02-23T04:58:07.916Z,89.86
2019-02-23T05:00:36.803Z,90.98
2019-02-23T05:03:05.547Z,90.98
2019-02-23T05:05:34.276Z,91.80
2019-02-23T05:08:04.368Z,91.67
2019-02-23T05:10:33.112Z,91.67
2019-02-23T05:13:01.830Z,91.58
2019-02-23T05:15:31.140Z,92.38
2019-02-23T05:17:59.954Z,92.94
2019-02-23T05:20:28.679Z,92.62
2019-02-23T05:22:57.562Z,92.62
2019-02-23T05:25:26.284Z,91.90
2019-02-23T05:27:55.017Z,92.12
2019-02-23T05:30:23.929Z,91.50
2019-02-23T05:32:52.663Z,92.05
2019-02-23T05:35:21.459Z,91.32
2019-02-23T05:37:50.326Z,91.26
2019-02-23T05:40:19.052Z,91.22
2019-02-23T05:42:47.778Z,92.27
2019-02-23T05:45:16.805Z,92.22
2019-02-23T05:47:45.545Z,91.83
2019-02-23T05:50:14.257Z,92.01
2019-02-23T05:52:43.022Z,91.88
2019-02-23T05:55:11.848Z,91.63
2019-02-23T05:57:40.577Z,91.02
2019-02-23T06:00:12.664Z,90.79
2019-02-23T06:02:41.395Z,91.37
2019-02-23T06:05:10.110Z,91.87
2019-02-23T06:07:38.920Z,91.75
2019-02-23T06:10:09.644Z,90.03
2019-02-23T06:12:38.366Z,89.60
2019-02-23T06:15:10.293Z,88.16
2019-02-23T06:17:39.022Z,87.21
2019-02-23T06:20:09.048Z,86.47
2019-02-23T06:22:38.261Z,86.47
2019-02-23T06:25:08.184Z,87.69
2019-02-23T06:27:36.918Z,88.18
2019-02-23T06:30:09.225Z,87.49
2019-02-23T06:32:37.956Z,87.49
2019-02-23T06:35:08.886Z,88.30
2019-02-23T06:37:37.868Z,88.30
2019-02-23T06:40:09.202Z,87.08
2019-02-23T06:42:37.993Z,87.21
2019-02-23T06:45:10.056Z,87.49
2019-02-23T06:47:38.782Z,87.49
2019-02-23T06:50:08.204Z,87.98
2019-02-23T06:52:37.101Z,87.21
2019-02-23T06:55:07.021Z,83.91
2019-02-23T06:57:35.819Z,82.67
2019-02-23T07:00:09.556Z,82.67
2019-02-23T07:02:38.299Z,82.23
2019-02-23T07:05:07.043Z,81.21
2019-02-23T07:07:35.807Z,81.21
2019-02-23T07:10:06.278Z,80.99
2019-02-23T07:12:35.033Z,81.06
2019-02-23T07:15:04.409Z,79.51
2019-02-23T07:17:33.131Z,80.22
2019-02-23T07:20:03.160Z,79.59
2019-02-23T07:22:33.749Z,79.41
2019-02-23T07:25:02.379Z,76.14
2019-02-23T07:27:31.119Z,74.48
2019-02-23T07:30:00.402Z,73.41
2019-02-23T07:32:29.142Z,73.90
2019-02-23T07:34:57.887Z,72.11
2019-02-23T07:37:26.660Z,69.48
2019-02-23T07:39:55.386Z,68.36
2019-02-23T07:42:24.118Z,65.26
2019-02-23T07:44:52.887Z,66.24
2019-02-23T07:47:21.622Z,66.84
2019-02-23T07:49:50.368Z,66.90
2019-02-23T07:52:26.289Z,66.90
2019-02-23T07:54:52.442Z,64.30
2019-02-23T07:57:21.166Z,64.35
2019-02-23T07:59:50.208Z,65.49
2019-02-23T08:02:18.934Z,63.89
2019-02-23T08:04:47.653Z,60.87
2019-02-23T08:07:16.436Z,58.53
2019-02-23T08:09:45.156Z,62.38
2019-02-23T08:12:13.874Z,60.38
2019-02-23T08:14:42.777Z,62.25
2019-02-23T08:17:11.520Z,64.05
2019-02-23T08:19:41.355Z,61.53
2019-02-23T08:22:10.113Z,58.73
2019-02-23T08:24:38.852Z,60.89
2019-02-23T08:27:07.241Z,60.13
2019-02-23T08:29:36.122Z,61.30
2019-02-23T08:32:04.854Z,63.30
2019-02-23T08:34:33.595Z,60.71
2019-02-23T08:37:03.349Z,60.57
2019-02-23T08:39:32.110Z,58.13
2019-02-23T08:42:00.836Z,60.19
2019-02-23T08:44:30.341Z,59.96
2019-02-23T08:46:59.057Z,59.38
2019-02-23T08:49:27.788Z,57.00
2019-02-23T08:51:56.560Z,62.35
2019-02-23T08:54:25.291Z,57.90
2019-02-23T08:56:55.387Z,56.95
2019-02-23T08:59:24.408Z,60.88
2019-02-23T09:01:53.120Z,57.83
2019-02-23T09:04:21.833Z,60.27
2019-02-23T09:06:50.726Z,60.86
2019-02-23T09:09:19.458Z,58.56
2019-02-23T09:11:48.187Z,57.26
2019-02-23T09:14:17.057Z,55.50
2019-02-23T09:16:45.777Z,55.83
2019-02-23T09:19:14.495Z,58.33
2019-02-23T09:21:43.617Z,56.45
2019-02-23T09:24:12.333Z,54.22
2019-02-23T09:26:41.056Z,56.90
2019-02-23T09:29:09.824Z,51.75
2019-02-23T09:31:38.553Z,54.24
2019-02-23T09:34:07.282Z,54.23
2019-02-23T09:36:36.067Z,53.88
2019-02-23T09:39:05.580Z,51.26
2019-02-23T09:41:34.453Z,51.91
2019-02-23T09:44:04.421Z,50.05
2019-02-23T09:46:33.135Z,49.57
2019-02-23T09:49:01.863Z,52.63
2019-02-23T09:51:30.673Z,51.72
2019-02-23T09:53:59.392Z,52.98
2019-02-23T09:56:28.111Z,53.55
2019-02-23T09:58:56.894Z,51.15
2019-02-23T10:01:25.605Z,53.27
2019-02-23T10:03:54.327Z,52.42
2019-02-23T10:06:23.113Z,51.40
2019-02-23T10:08:51.831Z,52.27
2019-02-23T10:11:20.553Z,49.87
2019-02-23T10:13:49.819Z,51.35
2019-02-23T10:16:18.531Z,50.66
2019-02-23T10:18:47.253Z,52.62
2019-02-23T10:21:16.090Z,49.48
2019-02-23T10:23:44.818Z,49.00
2019-02-23T10:26:13.540Z,52.27
2019-02-23T10:28:42.308Z,50.79
2019-02-23T10:31:11.025Z,48.86
2019-02-23T10:33:47.409Z,50.95
2019-02-23T10:36:10.361Z,48.75
2019-02-23T10:38:39.073Z,45.27
2019-02-23T10:41:07.798Z,47.62
2019-02-23T10:43:36.606Z,48.47
2019-02-23T10:46:05.336Z,47.33
2019-02-23T10:48:34.054Z,46.78
2019-02-23T10:51:02.920Z,49.55
2019-02-23T10:53:33.005Z,47.31
2019-02-23T10:56:01.936Z,47.35
2019-02-23T10:58:30.703Z,52.13
2019-02-23T11:00:59.423Z,46.08
2019-02-23T11:03:28.135Z,52.42
2019-02-23T11:05:57.276Z,50.92
2019-02-23T11:08:25.991Z,49.76
2019-02-23T11:10:54.731Z,50.40
2019-02-23T11:13:23.581Z,50.04
2019-02-23T11:15:52.314Z,50.97
2019-02-23T11:18:21.061Z,53.71
2019-02-23T11:20:49.858Z,49.74
2019-02-23T11:23:18.580Z,46.94
2019-02-23T11:25:47.295Z,47.23
2019-02-23T11:28:16.109Z,49.29
2019-02-23T11:30:44.839Z,50.41
2019-02-23T11:33:13.576Z,53.11
2019-02-23T11:35:42.377Z,51.61
2019-02-23T11:38:11.113Z,48.99
2019-02-23T11:40:39.852Z,48.37
2019-02-23T11:43:08.626Z,48.38
2019-02-23T11:45:37.399Z,47.38
2019-02-23T11:48:06.126Z,49.90
2019-02-23T11:50:34.913Z,47.61
2019-02-23T11:53:03.658Z,49.31
2019-02-23T11:55:32.392Z,45.65
2019-02-23T11:58:01.201Z,50.20
2019-02-23T12:00:29.964Z,48.33
2019-02-23T12:02:58.685Z,48.37
2019-02-23T12:05:28.041Z,48.75
2019-02-23T12:07:56.797Z,51.03
2019-02-23T12:10:25.614Z,49.82
2019-02-23T12:12:54.697Z,50.64
2019-02-23T12:15:24.287Z,52.08
2019-02-23T12:17:53.007Z,49.48
2019-02-23T12:20:21.887Z,51.01
2019-02-23T12:22:50.610Z,49.75
2019-02-23T12:25:19.337Z,53.66
2019-02-23T12:27:48.228Z,54.56
2019-02-23T12:30:16.943Z,55.30
2019-02-23T12:32:45.719Z,55.10
2019-02-23T12:35:14.503Z,55.84
2019-02-23T12:37:43.241Z,59.37
2019-02-23T12:40:12.364Z,59.37
2019-02-23T12:42:41.237Z,60.33
2019-02-23T12:45:11.999Z,59.48
2019-02-23T12:47:40.880Z,60.99
2019-02-23T12:50:11.732Z,56.36
2019-02-23T12:52:40.469Z,59.96
2019-02-23T12:55:11.094Z,59.96
2019-02-23T12:57:39.895Z,58.33
2019-02-23T13:00:11.544Z,60.05
2019-02-23T13:02:40.332Z,59.03
2019-02-23T13:05:09.247Z,57.28
2019-02-23T13:07:38.577Z,57.65
2019-02-23T13:10:11.447Z,57.46
2019-02-23T13:12:49.134Z,57.46
2019-02-23T13:15:21.131Z,55.95
2019-02-23T13:18:07.937Z,57.30
2019-02-23T13:20:51.606Z,56.32
2019-02-23T13:23:48.197Z,59.43
2019-02-23T13:26:36.061Z,57.08
2019-02-23T13:29:07.792Z,56.90
2019-02-23T13:31:42.471Z,57.96
2019-02-23T13:34:29.226Z,57.96
2019-02-23T13:37:19.100Z,58.52
2019-02-23T13:39:53.542Z,60.41
2019-02-23T13:42:43.179Z,60.41
2019-02-23T13:45:18.220Z,55.15
2019-02-23T13:47:52.723Z,56.17
2019-02-23T13:50:30.551Z,59.00
2019-02-23T13:53:21.724Z,61.30
2019-02-23T13:56:21.549Z,61.30
2019-02-23T13:59:17.546Z,62.61
2019-02-23T14:02:18.209Z,62.61
2019-02-23T14:05:14.098Z,61.09
2019-02-23T14:08:21.733Z,61.09
2019-02-23T14:11:08.414Z,63.76
2019-02-23T14:13:43.295Z,64.25
2019-02-23T14:16:26.808Z,61.68
2019-02-23T14:19:04.617Z,64.36
2019-02-23T14:21:58.997Z,61.05
2019-02-23T14:24:50.226Z,59.89
2019-02-23T14:27:31.503Z,59.89
2019-02-23T14:30:15.520Z,59.59
2019-02-23T14:32:59.105Z,60.66
2019-02-23T14:35:39.562Z,61.14
2019-02-23T14:38:29.289Z,63.18
2019-02-23T14:41:09.670Z,60.75
2019-02-23T14:43:44.246Z,60.33
2019-02-23T14:46:37.135Z,61.98
2019-02-23T14:49:36.328Z,59.63
2019-02-23T14:52:15.561Z,60.42
2019-02-23T14:55:03.431Z,60.29
2019-02-23T14:57:43.731Z,60.40
2019-02-23T15:00:21.384Z,61.70
2019-02-23T15:02:59.310Z,62.03
2019-02-23T15:05:39.853Z,61.82
2019-02-23T15:08:23.283Z,61.76
2019-02-23T15:10:57.462Z,60.60
2019-02-23T15:13:31.929Z,64.00
2019-02-23T15:16:38.441Z,63.34
2019-02-23T15:19:33.463Z,60.90
2019-02-23T15:22:22.974Z,63.02
2019-02-23T15:25:12.923Z,62.71
2019-02-23T15:27:39.547Z,62.26
2019-02-23T15:30:20.226Z,61.90
2019-02-23T15:32:54.845Z,62.93
2019-02-23T15:35:26.621Z,61.07
2019-02-23T15:38:14.762Z,58.99
2019-02-23T15:40:58.583Z,59.17
2019-02-23T15:43:45.369Z,58.41
2019-02-23T15:46:29.561Z,60.49
2019-02-23T15:49:30.571Z,61.21
2019-02-23T15:52:00.353Z,55.12
2019-02-23T15:54:29.355Z,55.37
2019-02-23T15:56:58.259Z,54.58
2019-02-23T15:59:27.632Z,54.48
2019-02-23T16:01:57.169Z,54.86
2019-02-23T16:04:25.902Z,55.46
2019-02-23T16:06:54.787Z,55.52
2019-02-23T16:09:23.559Z,57.94
2019-02-23T16:11:52.248Z,56.38
2019-02-23T16:14:21.043Z,58.97
2019-02-23T16:16:49.846Z,58.90
2019-02-23T16:19:18.592Z,58.73
2019-02-23T16:21:47.431Z,57.69
2019-02-23T16:24:16.168Z,57.88
2019-02-23T16:26:44.906Z,56.32
2019-02-23T16:29:13.895Z,56.32
2019-02-23T16:31:42.773Z,59.15
2019-02-23T16:34:11.514Z,62.25
2019-02-23T16:36:40.304Z,62.36
2019-02-23T16:39:10.435Z,62.01
2019-02-23T16:41:39.233Z,61.52
2019-02-23T16:44:08.116Z,60.92
2019-02-23T16:46:36.848Z,63.43
2019-02-23T16:49:05.668Z,64.56
2019-02-23T16:51:34.455Z,64.74
2019-02-23T16:54:03.297Z,63.80
2019-02-23T16:56:31.988Z,64.30
2019-02-23T16:59:00.843Z,62.94
2019-02-23T17:01:29.589Z,63.63
2019-02-23T17:03:58.310Z,62.33
2019-02-23T17:06:27.323Z,64.21
2019-02-23T17:08:56.056Z,63.42
2019-02-23T17:11:24.810Z,64.80
2019-02-23T17:13:53.763Z,65.40
2019-02-23T17:16:22.509Z,63.89
2019-02-23T17:18:51.236Z,62.85
2019-02-23T17:21:20.118Z,65.58
2019-02-23T17:23:48.840Z,66.03
2019-02-23T17:26:17.586Z,66.59
2019-02-23T17:28:46.374Z,65.10
2019-02-23T17:31:15.110Z,64.37
2019-02-23T17:33:43.848Z,63.34
2019-02-23T17:36:13.052Z,63.54
2019-02-23T17:38:44.728Z,64.20
2019-02-23T17:41:12.259Z,64.59
2019-02-23T17:43:41.260Z,62.62
2019-02-23T17:46:09.992Z,64.69
2019-02-23T17:48:38.719Z,65.26
2019-02-23T17:51:07.504Z,65.03
2019-02-23T17:53:36.236Z,66.47
2019-02-23T17:56:12.075Z,68.66
2019-02-23T17:58:35.537Z,68.76
2019-02-23T18:01:04.266Z,69.08
2019-02-23T18:03:32.994Z,69.20
2019-02-23T18:06:01.900Z,67.77
2019-02-23T18:08:30.603Z,66.31
2019-02-23T18:11:00.510Z,67.47
2019-02-23T18:13:29.870Z,69.12
2019-02-23T18:15:58.598Z,68.37
2019-02-23T18:18:27.341Z,68.59
2019-02-23T18:20:56.138Z,67.95
2019-02-23T18:23:24.865Z,67.85
2019-02-23T18:25:53.596Z,67.13
2019-02-23T18:28:22.398Z,69.20
2019-02-23T18:30:51.126Z,68.51
2019-02-23T18:33:24.474Z,69.01
2019-02-23T18:35:53.297Z,70.13
2019-02-23T18:38:22.183Z,70.12
2019-02-23T18:40:50.916Z,69.28
2019-02-23T18:43:19.810Z,70.83
2019-02-23T18:45:48.535Z,69.68
2019-02-23T18:48:17.258Z,68.56
2019-02-23T18:50:47.707Z,68.56
2019-02-23T18:53:16.438Z,68.22
2019-02-23T18:55:45.164Z,68.98
2019-02-23T18:58:14.059Z,67.64
2019-02-23T19:00:42.834Z,67.64
2019-02-23T19:03:11.522Z,67.69
2019-02-23T19:05:40.544Z,67.23
2019-02-23T19:08:09.272Z,67.61
2019-02-23T19:10:38.002Z,68.29
2019-02-23T19:13:08.472Z,70.74
2019-02-23T19:15:37.372Z,70.74
2019-02-23T19:18:06.094Z,72.50
2019-02-23T19:20:34.952Z,72.10
2019-02-23T19:23:03.690Z,73.09
2019-02-23T19:25:32.421Z,75.07
2019-02-23T19:28:01.227Z,76.80
2019-02-23T19:30:29.965Z,77.88
2019-02-23T19:33:01.642Z,77.47
2019-02-23T19:35:30.808Z,77.46
2019-02-23T19:37:59.546Z,77.46
2019-02-23T19:40:29.719Z,76.93
2019-02-23T19:42:58.804Z,76.93
2019-02-23T19:45:27.529Z,78.02
2019-02-23T19:47:56.262Z,78.85
2019-02-23T19:50:31.391Z,78.85
2019-02-23T19:53:00.167Z,78.26
2019-02-23T19:55:28.926Z,78.46
2019-02-23T19:57:57.821Z,79.69
2019-02-23T20:00:26.619Z,78.57
2019-02-23T20:02:58.177Z,78.57
2019-02-23T20:05:27.247Z,78.59
2019-02-23T20:07:56.078Z,79.50
2019-02-23T20:10:24.817Z,79.12
2019-02-23T20:12:53.625Z,79.12
2019-02-23T20:15:26.418Z,78.70
2019-02-23T20:17:58.130Z,79.66
2019-02-23T20:20:28.606Z,80.02
2019-02-23T20:22:57.359Z,78.89
2019-02-23T20:25:26.072Z,78.85
2019-02-23T20:27:54.949Z,78.75
2019-02-23T20:30:23.678Z,78.31
2019-02-23T20:32:52.489Z,77.77
2019-02-23T20:35:21.677Z,77.32
2019-02-23T20:37:50.405Z,77.28
2019-02-23T20:40:19.226Z,76.94
2019-02-23T20:42:48.439Z,76.66
2019-02-23T20:45:17.175Z,75.62
2019-02-23T20:47:45.988Z,74.65
2019-02-23T20:50:14.800Z,75.23
2019-02-23T20:52:43.543Z,73.55
2019-02-23T20:55:12.280Z,74.16
2019-02-23T20:57:42.731Z,74.25
2019-02-23T21:00:12.365Z,74.36
2019-02-23T21:02:41.229Z,74.63
2019-02-23T21:05:15.526Z,75.37
2019-02-23T21:07:44.285Z,75.57
2019-02-23T21:10:13.022Z,76.54
2019-02-23T21:12:43.351Z,76.98
2019-02-23T21:15:12.475Z,76.43
2019-02-23T21:17:41.219Z,76.26
2019-02-23T21:20:12.111Z,76.31
2019-02-23T21:22:42.459Z,76.29
2019-02-23T21:25:14.172Z,75.65
2019-02-23T21:27:43.457Z,76.31
2019-02-23T21:30:12.211Z,76.41
2019-02-23T21:32:40.935Z,77.24
2019-02-23T21:35:09.834Z,77.75
2019-02-23T21:37:44.533Z,77.08
2019-02-23T21:40:13.602Z,76.45
2019-02-23T21:42:42.336Z,76.93
2019-02-23T21:45:12.600Z,76.83
2019-02-23T21:47:41.775Z,77.10
2019-02-23T21:50:13.140Z,78.01
2019-02-23T21:52:41.942Z,78.84
2019-02-23T21:55:11.973Z,78.84
2019-02-23T21:57:42.210Z,79.38
2019-02-23T22:00:17.585Z,79.77
2019-02-23T22:02:46.312Z,79.77
2019-02-23T22:05:15.088Z,80.23
2019-02-23T22:07:44.761Z,81.38
2019-02-23T22:10:13.468Z,81.38
2019-02-23T22:12:42.190Z,79.87
2019-02-23T22:15:11.086Z,79.87
2019-02-23T22:17:39.810Z,80.26
2019-02-23T22:20:08.645Z,80.97
2019-02-23T22:22:37.421Z,80.67
2019-02-23T22:25:06.141Z,81.46
2019-02-23T22:27:34.858Z,81.46
2019-02-23T22:30:03.870Z,82.17
2019-02-23T22:32:32.605Z,82.56
2019-02-23T22:35:01.341Z,83.39
2019-02-23T22:37:30.188Z,83.01
2019-02-23T22:39:58.902Z,83.01
2019-02-23T22:42:27.668Z,82.73
2019-02-23T22:44:57.033Z,82.92
2019-02-23T22:47:28.105Z,83.61
2019-02-23T22:49:56.937Z,83.61
2019-02-23T22:52:25.665Z,83.58
2019-02-23T22:54:54.445Z,84.13
2019-02-23T22:57:24.645Z,84.13
2019-02-23T22:59:53.384Z,84.89
2019-02-23T23:02:22.121Z,83.02
2019-02-23T23:04:52.151Z,82.72
2019-02-23T23:07:20.908Z,82.72
2019-02-23T23:09:49.649Z,80.84
2019-02-23T23:12:18.837Z,80.84
2019-02-23T23:14:47.620Z,82.69
2019-02-23T23:17:16.336Z,82.69
2019-02-23T23:19:46.229Z,82.96
2019-02-23T23:22:14.937Z,82.89
2019-02-23T23:24:45.865Z,83.15
2019-02-23T23:27:14.656Z,83.15
2019-02-23T23:29:46.939Z,83.64
2019-02-23T23:32:15.339Z,83.64
2019-02-23T23:34:47.301Z,84.21
2019-02-23T23:37:16.019Z,84.30
2019-02-23T23:39:46.200Z,84.34
2019-02-23T23:42:17.543Z,84.34
2019-02-23T23:44:45.569Z,85.35
2019-02-23T23:47:14.304Z,84.90
2019-02-23T23:49:44.815Z,84.90
2019-02-23T23:52:15.894Z,85.61
2019-02-23T23:54:46.204Z,86.50
2019-02-23T23:57:15.632Z,86.50
2019-02-23T23:59:44.399Z,86.52
